createdAt,value
2018-10-07T00:00:27.929Z,9.20
2018-10-07T00:02:56.193Z,7.47
2018-10-07T00:05:24.590Z,7.57
2018-10-07T00:07:52.878Z,7.97
2018-10-07T00:10:21.195Z,7.20
2018-10-07T00:12:49.479Z,6.93
2018-10-07T00:15:17.663Z,6.80
2018-10-07T00:17:45.856Z,8.90
2018-10-07T00:20:14.038Z,10.07
2018-10-07T00:22:42.233Z,10.13
2018-10-07T00:25:10.430Z,8.07
2018-10-07T00:27:38.606Z,8.43
2018-10-07T00:30:06.826Z,8.17
2018-10-07T00:32:35.047Z,8.97
2018-10-07T00:35:03.221Z,8.10
2018-10-07T00:37:31.400Z,8.83
2018-10-07T00:39:59.645Z,7.93
2018-10-07T00:42:27.873Z,7.50
2018-10-07T00:44:56.041Z,8.27
2018-10-07T00:47:24.233Z,10.03
2018-10-07T00:49:52.446Z,7.83
2018-10-07T00:52:20.698Z,11.13
2018-10-07T00:54:49.011Z,9.90
2018-10-07T00:57:17.222Z,8.93
2018-10-07T00:59:45.408Z,12.57
2018-10-07T01:02:13.648Z,10.10
2018-10-07T01:04:41.934Z,9.03
2018-10-07T01:07:10.219Z,12.87
2018-10-07T01:09:38.475Z,9.30
2018-10-07T01:12:06.753Z,10.43
2018-10-07T01:14:34.989Z,9.73
2018-10-07T01:17:03.250Z,9.87
2018-10-07T01:19:31.440Z,9.10
2018-10-07T01:21:59.640Z,9.90
2018-10-07T01:24:27.893Z,10.00
2018-10-07T01:26:56.158Z,8.20
2018-10-07T01:29:24.337Z,10.80
2018-10-07T01:31:52.509Z,10.83
2018-10-07T01:34:20.730Z,8.77
2018-10-07T01:36:48.954Z,8.50
2018-10-07T01:39:17.157Z,11.17
2018-10-07T01:41:45.368Z,8.20
2018-10-07T01:44:13.580Z,10.77
2018-10-07T01:46:41.843Z,7.40
2018-10-07T01:49:10.096Z,8.47
2018-10-07T01:51:38.256Z,8.17
2018-10-07T01:54:06.447Z,7.33
2018-10-07T01:56:34.623Z,8.10
2018-10-07T01:59:02.801Z,6.77
2018-10-07T02:01:30.964Z,6.50
2018-10-07T02:03:59.135Z,6.70
2018-10-07T02:06:27.321Z,8.47
2018-10-07T02:08:55.516Z,10.17
2018-10-07T02:11:23.683Z,10.63
2018-10-07T02:13:51.909Z,8.67
2018-10-07T02:16:20.131Z,8.33
2018-10-07T02:18:48.312Z,7.03
2018-10-07T02:21:16.474Z,10.20
2018-10-07T02:23:44.666Z,6.67
2018-10-07T02:26:12.833Z,9.20
2018-10-07T02:28:41.102Z,8.37
2018-10-07T02:31:09.287Z,9.07
2018-10-07T02:33:37.455Z,9.03
2018-10-07T02:36:05.745Z,7.83
2018-10-07T02:38:33.928Z,7.87
2018-10-07T02:41:02.112Z,8.70
2018-10-07T02:43:30.348Z,7.47
2018-10-07T02:45:58.522Z,9.97
2018-10-07T02:48:26.691Z,9.43
2018-10-07T02:50:54.953Z,9.43
2018-10-07T02:53:23.284Z,8.90
2018-10-07T02:55:51.361Z,7.93
2018-10-07T02:58:19.564Z,8.77
2018-10-07T03:00:47.783Z,12.50
2018-10-07T03:03:16.047Z,11.00
2018-10-07T03:05:44.245Z,9.13
2018-10-07T03:08:12.420Z,7.97
2018-10-07T03:10:40.641Z,7.23
2018-10-07T03:13:08.850Z,6.87
2018-10-07T03:15:37.044Z,8.63
2018-10-07T03:18:05.253Z,7.77
2018-10-07T03:20:33.440Z,6.73
2018-10-07T03:23:01.616Z,8.30
2018-10-07T03:25:29.826Z,10.57
2018-10-07T03:27:58.001Z,7.83
2018-10-07T03:30:26.260Z,7.93
2018-10-07T03:32:54.469Z,7.07
2018-10-07T03:35:22.633Z,9.93
2018-10-07T03:37:50.807Z,7.20
2018-10-07T03:40:18.997Z,7.00
2018-10-07T03:42:47.211Z,6.57
2018-10-07T03:45:15.380Z,7.90
2018-10-07T03:47:43.565Z,8.77
2018-10-07T03:50:11.736Z,6.87
2018-10-07T03:52:39.941Z,7.03
2018-10-07T03:55:08.189Z,7.83
2018-10-07T03:57:36.380Z,6.83
2018-10-07T04:00:04.608Z,7.50
2018-10-07T04:02:32.828Z,12.63
2018-10-07T04:05:01.071Z,8.57
2018-10-07T04:07:29.252Z,9.63
2018-10-07T04:09:57.482Z,8.67
2018-10-07T04:12:25.626Z,8.00
2018-10-07T04:14:53.808Z,11.53
2018-10-07T04:17:21.961Z,10.30
2018-10-07T04:19:50.163Z,9.40
2018-10-07T04:22:18.398Z,8.90
2018-10-07T04:24:46.580Z,10.17
2018-10-07T04:27:14.806Z,8.03
2018-10-07T04:29:43.005Z,10.13
2018-10-07T04:32:11.195Z,6.90
2018-10-07T04:34:39.417Z,10.17
2018-10-07T04:37:07.595Z,7.30
2018-10-07T04:39:35.811Z,7.00
2018-10-07T04:42:03.948Z,8.33
2018-10-07T04:44:32.104Z,9.47
2018-10-07T04:47:00.269Z,8.90
2018-10-07T04:49:28.489Z,9.17
2018-10-07T04:51:56.668Z,7.80
2018-10-07T04:54:24.836Z,8.83
2018-10-07T04:56:53.006Z,7.43
2018-10-07T04:59:21.274Z,11.30
2018-10-07T05:01:49.453Z,16.20
2018-10-07T05:04:17.659Z,13.37
2018-10-07T05:06:45.812Z,8.30
2018-10-07T05:09:14.005Z,8.70
2018-10-07T05:11:42.255Z,9.37
2018-10-07T05:14:10.980Z,9.40
2018-10-07T05:16:44.025Z,8.87
2018-10-07T05:19:12.212Z,10.00
2018-10-07T05:21:40.361Z,9.67
2018-10-07T05:24:08.531Z,7.77
2018-10-07T05:26:36.688Z,11.93
2018-10-07T05:29:05.003Z,9.30
2018-10-07T05:31:33.174Z,10.90
2018-10-07T05:34:01.373Z,9.57
2018-10-07T05:36:29.536Z,10.13
2018-10-07T05:38:57.697Z,9.60
2018-10-07T05:41:25.926Z,9.03
2018-10-07T05:43:54.163Z,12.00
2018-10-07T05:46:22.318Z,8.63
2018-10-07T05:48:50.475Z,8.53
2018-10-07T05:51:18.637Z,13.60
2018-10-07T05:53:46.829Z,8.33
2018-10-07T05:56:15.017Z,8.40
2018-10-07T05:58:43.237Z,9.93
2018-10-07T06:01:23.573Z,8.83
2018-10-07T06:03:55.432Z,8.90
2018-10-07T06:06:23.598Z,8.50
2018-10-07T06:08:52.029Z,7.83
2018-10-07T06:11:20.226Z,10.13
2018-10-07T06:13:48.428Z,7.87
2018-10-07T06:16:16.633Z,12.30
2018-10-07T06:18:44.801Z,8.53
2018-10-07T06:21:13.004Z,7.67
2018-10-07T06:23:41.237Z,6.87
2018-10-07T06:26:09.436Z,7.03
2018-10-07T06:28:37.605Z,6.97
2018-10-07T06:31:05.809Z,8.43
2018-10-07T06:33:33.964Z,6.73
2018-10-07T06:36:02.164Z,6.87
2018-10-07T06:38:30.375Z,9.40
2018-10-07T06:40:58.585Z,10.07
2018-10-07T06:43:26.772Z,9.03
2018-10-07T06:45:54.990Z,9.37
2018-10-07T06:48:23.148Z,8.47
2018-10-07T06:50:51.409Z,7.83
2018-10-07T06:53:19.618Z,7.27
2018-10-07T06:55:47.783Z,8.17
2018-10-07T06:58:15.985Z,8.43
2018-10-07T07:00:44.185Z,6.90
2018-10-07T07:03:12.373Z,6.20
2018-10-07T07:05:40.633Z,6.53
2018-10-07T07:08:08.805Z,7.00
2018-10-07T07:10:36.977Z,6.20
2018-10-07T07:13:05.280Z,9.63
2018-10-07T07:15:33.423Z,7.20
2018-10-07T07:18:01.645Z,7.80
2018-10-07T07:20:29.881Z,8.90
2018-10-07T07:22:58.060Z,7.47
2018-10-07T07:25:26.285Z,9.93
2018-10-07T07:27:54.474Z,8.77
2018-10-07T07:30:22.674Z,8.00
2018-10-07T07:32:50.940Z,9.57
2018-10-07T07:35:19.117Z,9.67
2018-10-07T07:37:47.317Z,8.20
2018-10-07T07:40:15.516Z,8.87
2018-10-07T07:42:43.708Z,9.00
2018-10-07T07:45:11.878Z,8.70
2018-10-07T07:47:40.102Z,9.03
2018-10-07T07:50:08.337Z,10.40
2018-10-07T07:52:36.609Z,9.30
2018-10-07T07:55:04.931Z,9.93
2018-10-07T07:57:33.089Z,10.47
2018-10-07T08:00:01.255Z,10.33
2018-10-07T08:02:29.429Z,11.33
2018-10-07T08:04:57.661Z,11.87
2018-10-07T08:07:25.852Z,13.70
2018-10-07T08:09:54.060Z,13.80
2018-10-07T08:12:22.248Z,13.20
2018-10-07T08:14:50.427Z,13.33
2018-10-07T08:17:18.627Z,13.17
2018-10-07T08:19:46.762Z,15.20
2018-10-07T08:22:14.937Z,17.37
2018-10-07T08:24:43.257Z,24.23
2018-10-07T08:27:11.461Z,23.73
2018-10-07T08:29:39.744Z,29.77
2018-10-07T08:32:07.924Z,29.23
2018-10-07T08:34:36.124Z,28.87
2018-10-07T08:37:04.352Z,28.20
2018-10-07T08:39:32.619Z,27.80
2018-10-07T08:42:00.798Z,31.53
2018-10-07T08:44:28.989Z,27.87
2018-10-07T08:46:57.183Z,27.43
2018-10-07T08:49:25.419Z,25.27
2018-10-07T08:51:53.585Z,30.93
2018-10-07T08:54:21.774Z,27.97
2018-10-07T08:56:49.949Z,28.07
2018-10-07T08:59:18.168Z,25.73
2018-10-07T09:01:46.422Z,24.30
2018-10-07T09:04:14.730Z,24.03
2018-10-07T09:06:42.912Z,24.43
2018-10-07T09:09:11.681Z,23.77
2018-10-07T09:11:40.349Z,21.40
2018-10-07T09:14:08.656Z,20.40
2018-10-07T09:16:36.849Z,21.47
2018-10-07T09:19:05.050Z,20.73
2018-10-07T09:21:33.246Z,19.30
2018-10-07T09:24:01.461Z,18.33
2018-10-07T09:26:29.739Z,22.30
2018-10-07T09:28:58.010Z,21.70
2018-10-07T09:31:26.210Z,19.37
2018-10-07T09:33:54.397Z,18.17
2018-10-07T09:36:22.672Z,17.97
2018-10-07T09:38:50.874Z,17.40
2018-10-07T09:41:19.129Z,18.43
2018-10-07T09:43:47.308Z,15.53
2018-10-07T09:46:15.496Z,16.37
2018-10-07T09:48:43.716Z,14.83
2018-10-07T09:51:11.979Z,18.60
2018-10-07T09:53:40.218Z,13.77
2018-10-07T09:56:08.392Z,14.30
2018-10-07T09:58:36.576Z,15.53
2018-10-07T10:01:04.786Z,12.57
2018-10-07T10:03:32.970Z,15.60
2018-10-07T10:06:01.417Z,14.97
2018-10-07T10:08:29.632Z,17.10
2018-10-07T10:10:57.869Z,15.40
2018-10-07T10:13:26.082Z,16.73
2018-10-07T10:15:54.325Z,14.50
2018-10-07T10:18:37.120Z,15.87
2018-10-07T10:21:09.147Z,16.97
2018-10-07T10:23:49.362Z,19.13
2018-10-07T10:26:25.093Z,15.20
2018-10-07T10:29:11.812Z,13.67
2018-10-07T10:31:59.254Z,16.27
2018-10-07T10:34:41.343Z,13.90
2018-10-07T10:37:09.985Z,14.10
2018-10-07T10:39:47.548Z,14.00
2018-10-07T10:42:25.852Z,14.03
2018-10-07T10:44:57.357Z,14.63
2018-10-07T10:47:33.661Z,15.53
2018-10-07T10:50:13.376Z,20.07
2018-10-07T10:53:20.164Z,18.03
2018-10-07T10:55:53.478Z,13.73
2018-10-07T10:58:33.997Z,15.80
2018-10-07T11:01:15.366Z,14.00
2018-10-07T11:03:50.416Z,12.93
2018-10-07T11:06:28.613Z,12.30
2018-10-07T11:09:05.916Z,11.70
2018-10-07T11:11:56.482Z,11.23
2018-10-07T11:14:39.324Z,11.17
2018-10-07T11:18:14.672Z,11.83
2018-10-07T11:20:57.733Z,12.97
2018-10-07T11:23:39.824Z,14.30
2018-10-07T11:26:18.451Z,14.97
2018-10-07T11:31:01.702Z,14.17
2018-10-07T11:33:46.625Z,12.40
2018-10-07T11:37:24.988Z,11.50
2018-10-07T11:41:01.658Z,16.17
2018-10-07T11:43:41.789Z,12.00
2018-10-07T11:46:18.555Z,13.13
2018-10-07T11:48:56.299Z,9.73
2018-10-07T11:52:34.623Z,14.43
2018-10-07T11:55:03.125Z,12.33
2018-10-07T11:57:31.324Z,14.43
2018-10-07T12:00:00.665Z,11.97
2018-10-07T12:02:29.109Z,11.23
2018-10-07T12:04:57.254Z,11.50
2018-10-07T12:07:26.525Z,10.83
2018-10-07T12:09:54.786Z,11.53
2018-10-07T12:12:23.002Z,10.80
2018-10-07T12:14:51.225Z,11.07
2018-10-07T12:17:19.456Z,10.00
2018-10-07T12:19:47.728Z,10.93
2018-10-07T12:22:15.917Z,12.90
2018-10-07T12:24:44.084Z,11.50
2018-10-07T12:27:12.360Z,11.93
2018-10-07T12:29:40.649Z,13.10
2018-10-07T12:32:09.635Z,13.53
2018-10-07T12:34:37.851Z,15.70
2018-10-07T12:37:06.078Z,12.97
2018-10-07T12:39:34.772Z,12.50
2018-10-07T12:42:03.073Z,10.40
2018-10-07T12:44:31.285Z,13.87
2018-10-07T12:46:59.593Z,11.30
2018-10-07T12:49:27.817Z,10.93
2018-10-07T12:51:56.094Z,11.70
2018-10-07T12:54:24.483Z,14.80
2018-10-07T12:56:52.614Z,12.67
2018-10-07T12:59:20.828Z,13.73
2018-10-07T13:01:49.053Z,11.93
2018-10-07T13:04:17.337Z,12.73
2018-10-07T13:06:45.592Z,16.13
2018-10-07T13:09:14.696Z,16.27
2018-10-07T13:11:42.883Z,16.73
2018-10-07T13:14:11.494Z,16.17
2018-10-07T13:16:40.203Z,17.20
2018-10-07T13:19:08.653Z,18.83
2018-10-07T13:21:37.026Z,15.97
2018-10-07T13:24:05.224Z,18.03
2018-10-07T13:26:33.433Z,14.23
2018-10-07T13:29:01.891Z,17.33
2018-10-07T13:31:30.132Z,14.93
2018-10-07T13:33:58.316Z,14.80
2018-10-07T13:36:26.579Z,17.40
2018-10-07T13:38:54.881Z,19.17
2018-10-07T13:41:23.069Z,18.57
2018-10-07T13:43:51.281Z,19.47
2018-10-07T13:46:19.509Z,18.10
2018-10-07T13:48:47.817Z,19.33
2018-10-07T13:51:16.028Z,20.70
2018-10-07T13:53:44.220Z,17.40
2018-10-07T13:56:12.422Z,17.63
2018-10-07T13:58:40.685Z,15.63
2018-10-07T14:01:08.876Z,16.63
2018-10-07T14:03:37.120Z,20.73
2018-10-07T14:06:05.315Z,18.60
2018-10-07T14:08:33.588Z,16.37
2018-10-07T14:11:01.771Z,16.57
2018-10-07T14:13:29.956Z,17.40
2018-10-07T14:15:58.133Z,16.80
2018-10-07T14:18:26.291Z,20.73
2018-10-07T14:20:54.486Z,21.63
2018-10-07T14:23:22.668Z,23.30
2018-10-07T14:25:50.854Z,21.47
2018-10-07T14:28:19.066Z,20.97
2018-10-07T14:30:47.268Z,19.13
2018-10-07T14:33:15.562Z,23.13
2018-10-07T14:35:43.781Z,22.80
2018-10-07T14:38:12.004Z,22.27
2018-10-07T14:40:40.185Z,24.03
2018-10-07T14:45:42.914Z,21.57
2018-10-07T14:48:11.163Z,23.57
2018-10-07T14:50:39.432Z,23.13
2018-10-07T14:53:07.605Z,24.07
2018-10-07T14:55:35.814Z,22.13
2018-10-07T14:58:03.985Z,20.90
2018-10-07T15:00:32.170Z,22.37
2018-10-07T15:03:00.450Z,20.90
2018-10-07T15:05:28.664Z,20.63
2018-10-07T15:07:56.873Z,19.43
2018-10-07T15:10:25.136Z,21.17
2018-10-07T15:12:53.337Z,24.50
2018-10-07T15:15:21.582Z,19.50
2018-10-07T15:17:49.748Z,21.93
2018-10-07T15:20:17.937Z,19.40
2018-10-07T15:22:46.137Z,18.60
2018-10-07T15:25:14.304Z,19.57
2018-10-07T15:27:42.483Z,17.50
2018-10-07T15:30:10.722Z,18.53
2018-10-07T15:32:38.904Z,20.97
2018-10-07T15:35:07.060Z,16.77
2018-10-07T15:37:35.239Z,17.80
2018-10-07T15:40:03.425Z,19.07
2018-10-07T15:42:31.637Z,15.07
2018-10-07T15:44:59.796Z,16.27
2018-10-07T15:47:28.017Z,15.00
2018-10-07T15:49:56.190Z,15.13
2018-10-07T15:52:24.419Z,14.67
2018-10-07T15:54:52.672Z,13.93
2018-10-07T15:57:20.872Z,15.77
2018-10-07T15:59:49.043Z,15.40
2018-10-07T16:02:17.448Z,12.80
2018-10-07T16:04:45.694Z,14.03
2018-10-07T16:07:13.889Z,13.83
2018-10-07T16:09:42.094Z,14.67
2018-10-07T16:12:10.280Z,14.37
2018-10-07T16:14:38.477Z,14.03
2018-10-07T16:17:06.675Z,14.00
2018-10-07T16:19:34.859Z,13.77
2018-10-07T16:22:03.100Z,13.70
2018-10-07T16:24:31.380Z,13.60
2018-10-07T16:26:59.487Z,13.13
2018-10-07T16:29:27.656Z,13.90
2018-10-07T16:31:55.867Z,14.47
2018-10-07T16:34:24.123Z,15.07
2018-10-07T16:36:52.314Z,14.70
2018-10-07T16:39:20.557Z,13.00
2018-10-07T16:41:48.741Z,14.13
2018-10-07T16:44:17.036Z,14.30
2018-10-07T16:46:45.217Z,12.37
2018-10-07T16:49:13.410Z,13.67
2018-10-07T16:51:41.596Z,14.13
2018-10-07T16:54:09.772Z,12.93
2018-10-07T16:56:38.036Z,11.80
2018-10-07T16:59:06.362Z,10.70
2018-10-07T17:01:34.629Z,13.50
2018-10-07T17:04:02.861Z,11.87
2018-10-07T17:06:31.076Z,10.47
2018-10-07T17:08:59.241Z,11.90
2018-10-07T17:11:27.418Z,11.53
2018-10-07T17:13:55.660Z,11.77
2018-10-07T17:16:23.833Z,10.23
2018-10-07T17:18:52.036Z,11.20
2018-10-07T17:21:20.272Z,9.40
2018-10-07T17:23:48.478Z,12.73
2018-10-07T17:26:16.780Z,8.20
2018-10-07T17:28:45.024Z,9.40
2018-10-07T17:31:13.183Z,9.70
2018-10-07T17:33:41.353Z,8.20
2018-10-07T17:36:09.561Z,8.43
2018-10-07T17:38:37.854Z,7.07
2018-10-07T17:41:06.073Z,8.47
2018-10-07T17:43:34.320Z,7.00
2018-10-07T17:46:02.489Z,10.03
2018-10-07T17:48:30.780Z,7.07
2018-10-07T17:50:58.912Z,7.50
2018-10-07T17:53:27.104Z,9.10
2018-10-07T17:55:55.269Z,6.33
2018-10-07T17:58:23.454Z,6.20
2018-10-07T18:00:51.617Z,5.83
2018-10-07T18:03:19.935Z,6.37
2018-10-07T18:05:48.049Z,6.97
2018-10-07T18:08:16.254Z,7.77
2018-10-07T18:10:44.407Z,6.80
2018-10-07T18:13:12.625Z,7.33
2018-10-07T18:15:40.847Z,7.40
2018-10-07T18:18:09.034Z,7.77
2018-10-07T18:20:37.214Z,7.07
2018-10-07T18:23:05.388Z,7.30
2018-10-07T18:25:33.565Z,9.73
2018-10-07T18:28:01.778Z,9.27
2018-10-07T18:30:29.948Z,6.67
2018-10-07T18:32:58.133Z,7.70
2018-10-07T18:35:26.440Z,6.33
2018-10-07T18:37:54.635Z,6.30
2018-10-07T18:40:22.857Z,8.07
2018-10-07T18:42:51.026Z,9.70
2018-10-07T18:45:19.273Z,6.90
2018-10-07T18:47:47.620Z,7.37
2018-10-07T18:50:15.858Z,7.27
2018-10-07T18:52:44.020Z,7.57
2018-10-07T18:55:12.216Z,6.70
2018-10-07T18:57:40.438Z,8.40
2018-10-07T19:00:10.025Z,8.23
2018-10-07T19:02:38.359Z,8.23
2018-10-07T19:05:06.566Z,12.10
2018-10-07T19:07:34.842Z,7.43
2018-10-07T19:10:03.145Z,8.00
2018-10-07T19:12:31.354Z,11.00
2018-10-07T19:14:59.660Z,8.63
2018-10-07T19:17:27.924Z,8.03
2018-10-07T19:19:56.165Z,7.03
2018-10-07T19:22:24.356Z,9.27
2018-10-07T19:24:52.552Z,9.47
2018-10-07T19:27:20.757Z,7.53
2018-10-07T19:29:48.998Z,9.20
2018-10-07T19:32:17.108Z,7.23
2018-10-07T19:34:45.333Z,7.90
2018-10-07T19:37:13.725Z,8.03
2018-10-07T19:39:41.824Z,7.43
2018-10-07T19:42:09.994Z,9.60
2018-10-07T19:44:38.192Z,10.30
2018-10-07T19:47:06.368Z,16.40
2018-10-07T19:49:34.603Z,13.77
2018-10-07T19:52:02.838Z,9.30
2018-10-07T19:54:31.068Z,10.37
2018-10-07T19:56:59.300Z,8.87
2018-10-07T19:59:27.548Z,9.10
2018-10-07T20:01:55.789Z,10.90
2018-10-07T20:04:23.988Z,10.17
2018-10-07T20:06:52.259Z,10.93
2018-10-07T20:09:20.421Z,10.40
2018-10-07T20:11:48.605Z,12.57
2018-10-07T20:14:16.784Z,12.10
2018-10-07T20:16:45.010Z,13.47
2018-10-07T20:19:13.518Z,11.87
2018-10-07T20:21:41.677Z,10.60
2018-10-07T20:24:09.858Z,11.73
2018-10-07T20:26:38.048Z,13.03
2018-10-07T20:29:06.705Z,13.00
2018-10-07T20:31:34.896Z,12.23
2018-10-07T20:34:03.156Z,11.50
2018-10-07T20:36:31.276Z,10.13
2018-10-07T20:38:59.501Z,8.97
2018-10-07T20:41:27.760Z,8.37
2018-10-07T20:43:55.915Z,8.57
2018-10-07T20:46:24.084Z,9.17
2018-10-07T20:48:52.316Z,9.20
2018-10-07T20:51:20.525Z,9.93
2018-10-07T20:53:48.696Z,9.33
2018-10-07T20:56:16.932Z,11.97
2018-10-07T20:58:45.096Z,11.27
2018-10-07T21:01:13.376Z,14.10
2018-10-07T21:03:41.619Z,10.10
2018-10-07T21:06:09.820Z,14.20
2018-10-07T21:08:38.062Z,13.40
2018-10-07T21:11:06.490Z,10.10
2018-10-07T21:13:34.656Z,11.63
2018-10-07T21:16:02.900Z,10.20
2018-10-07T21:18:31.076Z,10.73
2018-10-07T21:20:59.328Z,10.43
2018-10-07T21:23:27.514Z,9.77
2018-10-07T21:25:55.686Z,8.03
2018-10-07T21:28:23.868Z,8.40
2018-10-07T21:30:52.068Z,8.67
2018-10-07T21:33:20.249Z,10.70
2018-10-07T21:35:48.440Z,12.80
2018-10-07T21:38:16.621Z,8.97
2018-10-07T21:40:44.940Z,8.10
2018-10-07T21:43:13.125Z,9.23
2018-10-07T21:45:41.279Z,8.67
2018-10-07T21:48:09.516Z,8.23
2018-10-07T21:50:37.746Z,8.20
2018-10-07T21:53:06.373Z,8.27
2018-10-07T21:55:34.572Z,7.93
2018-10-07T21:58:02.781Z,8.17
2018-10-07T22:00:30.942Z,10.67
2018-10-07T22:02:59.129Z,9.17
2018-10-07T22:05:27.289Z,6.70
2018-10-07T22:07:55.545Z,7.03
2018-10-07T22:10:23.854Z,7.37
2018-10-07T22:12:52.026Z,9.43
2018-10-07T22:15:20.244Z,9.77
2018-10-07T22:17:48.436Z,21.23
2018-10-07T22:20:16.621Z,8.77
2018-10-07T22:22:44.845Z,8.43
2018-10-07T22:25:13.071Z,9.17
2018-10-07T22:27:41.271Z,8.60
2018-10-07T22:30:09.477Z,7.90
2018-10-07T22:32:37.667Z,11.53
2018-10-07T22:35:05.916Z,11.87
2018-10-07T22:37:34.085Z,10.33
2018-10-07T22:40:02.284Z,13.63
2018-10-07T22:42:30.453Z,10.93
2018-10-07T22:44:58.651Z,12.93
2018-10-07T22:47:26.839Z,13.40
2018-10-07T22:49:55.061Z,14.80
2018-10-07T22:52:23.663Z,13.77
2018-10-07T22:54:51.852Z,16.83
2018-10-07T22:57:20.039Z,18.80
2018-10-07T22:59:48.221Z,13.33
2018-10-07T23:02:16.408Z,13.13
2018-10-07T23:04:44.593Z,14.20
2018-10-07T23:07:12.793Z,15.93
2018-10-07T23:09:40.992Z,14.30
2018-10-07T23:12:09.169Z,13.33
2018-10-07T23:14:37.440Z,13.67
2018-10-07T23:17:05.637Z,12.87
2018-10-07T23:19:33.849Z,13.00
2018-10-07T23:22:02.685Z,16.77
2018-10-07T23:24:31.024Z,12.90
2018-10-07T23:26:59.194Z,13.10
2018-10-07T23:29:27.374Z,12.50
2018-10-07T23:31:55.579Z,13.63
2018-10-07T23:34:23.774Z,15.40
2018-10-07T23:36:52.786Z,11.63
2018-10-07T23:39:20.999Z,12.60
2018-10-07T23:41:49.173Z,13.80
2018-10-07T23:44:17.370Z,12.67
2018-10-07T23:46:45.561Z,10.83
2018-10-07T23:49:13.838Z,11.67
2018-10-07T23:51:42.068Z,10.17
2018-10-07T23:54:10.197Z,12.27
2018-10-07T23:56:38.375Z,11.63
2018-10-07T23:59:06.620Z,14.23
